Time;durP1;ratioP1;P1;durP2;ratioP2;P2;SDS_P1;SDS_P2;PMS_P1;PMS_P2;Temp;Humidity;BMP_temperature;BMP_pressure;BME280_temperature;BME280_humidity;BME280_pressure;Samples;Min_cycle;Max_cycle;Signal;HPM_P1;HPM_P2
2022/07/26 00:02:18;;;;;;;6.03;5.43;;;21.50;93.30;;;;;;5034949;28;20214;-68
2022/07/26 00:04:45;;;;;;;6.30;5.18;;;21.50;93.40;;;;;;5034498;28;20222;-68
2022/07/26 00:07:11;;;;;;;6.68;4.82;;;21.40;93.50;;;;;;5035236;28;20246;-68
2022/07/26 00:09:38;;;;;;;6.00;5.18;;;21.30;93.60;;;;;;5036019;28;20210;-68
2022/07/26 00:12:05;;;;;;;6.93;4.82;;;21.30;93.70;;;;;;5032937;28;20206;-68
2022/07/26 00:14:33;;;;;;;5.68;5.18;;;21.20;93.80;;;;;;5036337;28;20211;-68
2022/07/26 00:17:01;;;;;;;6.65;5.07;;;21.30;94.10;;;;;;5035911;28;20215;-68
2022/07/26 00:19:28;;;;;;;5.60;5.10;;;21.20;94.10;;;;;;5034109;28;20203;-68
2022/07/26 00:24:35;;;;;;;7.18;4.95;;;21.10;94.50;;;;;;5022365;28;20202;-68
2022/07/26 00:27:02;;;;;;;5.38;4.88;;;21.10;94.60;;;;;;5031398;28;20229;-69
2022/07/26 00:29:29;;;;;;;6.43;5.30;;;21.10;94.80;;;;;;5034030;28;20240;-68
2022/07/26 00:31:57;;;;;;;5.50;4.88;;;21.00;94.90;;;;;;5035165;28;20558;-68
2022/07/26 00:34:24;;;;;;;5.72;4.47;;;21.00;95.10;;;;;;5034664;28;20639;-68
2022/07/26 00:36:51;;;;;;;5.63;4.60;;;21.00;95.20;;;;;;5034919;28;20211;-68
2022/07/26 00:39:18;;;;;;;5.50;5.00;;;21.00;95.40;;;;;;5035634;28;20309;-68
2022/07/26 00:41:44;;;;;;;5.57;5.07;;;20.90;95.60;;;;;;5035604;28;20202;-68
2022/07/26 00:44:11;;;;;;;5.18;4.68;;;20.90;95.70;;;;;;5035887;28;20206;-69
2022/07/26 00:46:41;;;;;;;7.53;5.72;;;20.90;95.80;;;;;;5035145;28;20226;-68
2022/07/26 00:49:10;;;;;;;8.38;4.90;;;20.80;96.00;;;;;;5036272;28;20206;-69
2022/07/26 00:51:37;;;;;;;6.22;4.50;;;20.80;96.20;;;;;;5035057;28;20214;-68
2022/07/26 00:54:04;;;;;;;5.80;4.85;;;20.80;96.40;;;;;;5035422;28;20245;-69
2022/07/26 00:56:32;;;;;;;6.50;5.15;;;20.70;96.60;;;;;;5033132;28;20203;-68
2022/07/26 00:58:59;;;;;;;6.18;4.90;;;20.70;96.80;;;;;;5035017;28;20214;-69
2022/07/26 01:01:26;;;;;;;7.53;5.20;;;20.70;97.00;;;;;;5035963;28;20210;-69
2022/07/26 01:03:54;;;;;;;5.80;5.10;;;20.70;97.10;;;;;;5034888;28;20205;-68
2022/07/26 01:06:24;;;;;;;11.07;5.72;;;20.60;97.20;;;;;;5033838;28;20443;-68
2022/07/26 01:08:51;;;;;;;5.43;4.93;;;20.60;97.40;;;;;;5033501;28;20218;-68
2022/07/26 01:11:18;;;;;;;5.90;5.30;;;20.50;97.50;;;;;;5034572;28;20210;-68
2022/07/26 01:13:48;;;;;;;5.40;4.90;;;20.60;97.80;;;;;;5033846;28;20551;-69
2022/07/26 01:16:15;;;;;;;5.75;5.25;;;20.50;97.90;;;;;;5033469;28;20199;-69
2022/07/26 01:18:42;;;;;;;6.70;4.93;;;20.50;98.00;;;;;;5034971;28;20210;-69
2022/07/26 01:21:10;;;;;;;6.57;5.20;;;20.50;98.50;;;;;;5035529;28;20540;-69
2022/07/26 01:23:38;;;;;;;5.13;4.63;;;20.50;98.40;;;;;;5034312;28;20297;-69
2022/07/26 01:26:06;;;;;;;8.55;5.18;;;20.40;98.50;;;;;;5033243;28;20222;-69
2022/07/26 01:28:36;;;;;;;5.05;4.65;;;20.40;98.70;;;;;;5034432;28;20685;-69
2022/07/26 01:31:04;;;;;;;6.35;5.00;;;20.40;98.80;;;;;;5034838;28;20257;-68
2022/07/26 01:33:31;;;;;;;5.55;5.05;;;20.40;99.00;;;;;;5034910;28;20206;-68
2022/07/26 01:35:59;;;;;;;5.72;5.20;;;20.40;99.20;;;;;;5034502;28;20207;-69
2022/07/26 01:38:25;;;;;;;5.90;5.30;;;20.40;99.40;;;;;;5035617;28;20671;-69
2022/07/26 01:40:54;;;;;;;5.63;4.70;;;20.40;99.50;;;;;;5033134;28;20217;-68
2022/07/26 01:43:21;;;;;;;5.50;5.00;;;20.30;99.70;;;;;;5035030;28;20214;-68
2022/07/26 01:45:47;;;;;;;6.70;5.28;;;20.30;99.90;;;;;;5033410;28;20226;-68
2022/07/26 01:48:14;;;;;;;8.30;5.32;;;20.30;99.90;;;;;;5035015;28;20274;-69
2022/07/26 01:50:41;;;;;;;6.93;5.00;;;20.30;99.90;;;;;;5035537;28;20217;-68
2022/07/26 01:53:08;;;;;;;5.15;4.68;;;20.30;99.90;;;;;;5035195;28;20701;-69
2022/07/26 01:55:36;;;;;;;6.38;5.40;;;20.20;99.90;;;;;;5031919;28;20214;-69
2022/07/26 01:58:04;;;;;;;6.43;4.82;;;20.20;99.90;;;;;;5034128;28;20215;-68
2022/07/26 02:00:32;;;;;;;5.68;5.15;;;20.20;99.90;;;;;;5034182;28;20214;-68
2022/07/26 02:02:59;;;;;;;7.15;5.43;;;20.20;99.90;;;;;;5034733;28;20212;-68
2022/07/26 02:05:25;;;;;;;6.28;5.43;;;20.20;99.90;;;;;;5034243;28;20238;-69
2022/07/26 02:07:52;;;;;;;6.75;4.95;;;20.20;99.90;;;;;;5035139;28;20214;-69
2022/07/26 02:10:19;;;;;;;7.30;5.10;;;20.10;99.90;;;;;;5034018;28;20210;-69
2022/07/26 02:12:46;;;;;;;6.20;5.50;;;20.10;99.90;;;;;;5033896;28;20211;-68
2022/07/26 02:15:15;;;;;;;9.20;5.53;;;20.00;99.90;;;;;;5034557;28;20210;-69
2022/07/26 02:17:42;;;;;;;5.60;5.10;;;20.00;99.90;;;;;;5035372;28;20467;-70
2022/07/26 02:20:10;;;;;;;5.63;5.13;;;20.00;99.90;;;;;;5035133;28;20210;-69
2022/07/26 02:22:36;;;;;;;10.30;4.90;;;20.00;99.90;;;;;;5033772;28;20214;-69
2022/07/26 02:25:04;;;;;;;5.70;5.00;;;20.00;99.90;;;;;;5033370;28;20224;-69
2022/07/26 02:27:30;;;;;;;7.78;5.20;;;20.10;99.90;;;;;;5035210;28;20229;-69
2022/07/26 02:29:57;;;;;;;5.55;4.95;;;20.00;99.90;;;;;;5035426;28;20210;-69
2022/07/26 02:32:25;;;;;;;5.88;4.90;;;20.00;99.90;;;;;;5037906;28;20210;-69
2022/07/26 02:34:52;;;;;;;8.55;5.20;;;20.00;99.90;;;;;;5038010;28;20305;-69
2022/07/26 02:37:19;;;;;;;5.47;4.85;;;20.00;99.90;;;;;;5036799;28;20213;-69
2022/07/26 02:39:45;;;;;;;6.60;4.88;;;20.00;99.90;;;;;;5036946;28;20674;-69
2022/07/26 02:42:12;;;;;;;5.38;4.88;;;20.00;99.90;;;;;;5038201;28;20210;-69
2022/07/26 02:44:40;;;;;;;6.78;5.13;;;19.90;99.90;;;;;;5038097;28;20217;-70
2022/07/26 02:47:07;;;;;;;5.82;4.70;;;20.00;99.90;;;;;;5035860;28;20233;-70
2022/07/26 02:49:35;;;;;;;7.38;5.25;;;19.90;99.90;;;;;;5038440;28;20577;-68
2022/07/26 02:52:01;;;;;;;5.93;4.72;;;19.90;99.90;;;;;;5037558;28;20210;-69
2022/07/26 02:54:28;;;;;;;6.47;5.22;;;19.90;99.90;;;;;;5036385;28;20242;-69
2022/07/26 02:56:55;;;;;;;6.93;5.28;;;19.90;99.90;;;;;;5036804;28;20199;-68
2022/07/26 02:59:22;;;;;;;8.00;4.93;;;19.90;99.90;;;;;;5036438;28;20211;-68
2022/07/26 03:01:49;;;;;;;8.85;5.43;;;19.90;99.90;;;;;;5037825;28;20219;-69
2022/07/26 03:04:15;;;;;;;8.32;4.95;;;19.90;99.90;;;;;;5035894;28;20218;-68
2022/07/26 03:06:43;;;;;;;6.40;5.35;;;19.90;99.90;;;;;;5036493;28;20230;-67
2022/07/26 03:09:10;;;;;;;5.40;4.90;;;19.80;99.90;;;;;;5035489;28;20674;-69
2022/07/26 03:11:37;;;;;;;4.70;4.30;;;19.90;99.90;;;;;;5037795;28;20206;-70
2022/07/26 03:14:04;;;;;;;5.60;5.07;;;19.90;99.90;;;;;;5037424;28;20206;-69
2022/07/26 03:16:31;;;;;;;5.75;5.07;;;19.80;99.90;;;;;;5035911;28;20214;-69
2022/07/26 03:18:57;;;;;;;5.88;5.28;;;19.80;99.90;;;;;;5036458;28;20202;-69
2022/07/26 03:21:24;;;;;;;5.22;4.72;;;19.80;99.90;;;;;;5035593;28;20203;-68
2022/07/26 03:23:53;;;;;;;6.20;5.22;;;19.90;99.90;;;;;;5036426;28;20305;-69
2022/07/26 03:26:20;;;;;;;5.90;5.30;;;19.90;99.90;;;;;;5035766;28;20686;-69
2022/07/26 03:28:46;;;;;;;7.00;6.20;;;19.90;99.90;;;;;;5036950;28;20213;-68
2022/07/26 03:31:14;;;;;;;7.00;5.63;;;19.80;99.90;;;;;;5027006;28;20209;-68
2022/07/26 03:33:40;;;;;;;7.43;5.68;;;19.80;99.90;;;;;;5036605;28;20203;-68
2022/07/26 03:36:09;;;;;;;7.70;5.55;;;19.80;99.90;;;;;;5035660;28;20203;-68
2022/07/26 03:38:36;;;;;;;6.07;5.47;;;19.90;99.90;;;;;;5035871;28;20298;-68
2022/07/26 03:41:05;;;;;;;6.53;5.70;;;19.80;99.90;;;;;;5036570;28;20548;-69
2022/07/26 03:43:32;;;;;;;6.53;5.72;;;19.90;99.90;;;;;;5037038;28;20210;-69
2022/07/26 03:45:59;;;;;;;6.80;5.82;;;19.90;99.90;;;;;;5036059;28;20226;-69
2022/07/26 03:48:26;;;;;;;8.05;5.70;;;20.00;99.90;;;;;;5034826;28;20210;-70
2022/07/26 03:50:52;;;;;;;5.60;5.10;;;19.90;99.90;;;;;;5037710;28;20206;-69
2022/07/26 03:53:19;;;;;;;6.05;5.47;;;20.00;99.90;;;;;;5034693;28;20226;-69
2022/07/26 03:58:32;;;;;;;6.40;5.20;;;20.00;99.90;;;;;;5035648;28;20200;-69
2022/07/26 04:00:58;;;;;;;8.23;5.45;;;20.10;99.90;;;;;;5034134;28;20313;-69
2022/07/26 04:03:25;;;;;;;8.77;5.53;;;20.00;99.90;;;;;;5031620;28;20246;-70
2022/07/26 04:05:52;;;;;;;7.38;4.85;;;20.00;99.90;;;;;;5035743;28;20215;-69
2022/07/26 04:08:19;;;;;;;6.75;5.60;;;19.90;99.90;;;;;;5035266;28;20207;-68
2022/07/26 04:10:46;;;;;;;6.75;5.68;;;20.10;99.90;;;;;;5035444;28;20215;-69
2022/07/26 04:13:13;;;;;;;5.05;4.60;;;20.10;99.90;;;;;;5036365;28;20277;-71
2022/07/26 04:15:41;;;;;;;5.97;5.43;;;20.10;99.90;;;;;;5036171;28;20210;-70
2022/07/26 04:18:08;;;;;;;6.05;5.45;;;20.20;99.90;;;;;;5035369;28;20213;-69
2022/07/26 04:20:35;;;;;;;5.75;5.10;;;20.20;99.90;;;;;;5036330;28;20222;-69
2022/07/26 04:23:01;;;;;;;8.20;5.07;;;20.30;99.90;;;;;;5035958;28;20206;-69
2022/07/26 04:25:28;;;;;;;8.40;4.97;;;20.40;99.90;;;;;;5035744;28;20230;-69
2022/07/26 04:27:55;;;;;;;6.10;5.43;;;20.40;99.90;;;;;;5033993;28;20230;-70
2022/07/26 04:30:22;;;;;;;10.57;5.30;;;20.50;99.90;;;;;;5035513;28;20210;-69
2022/07/26 04:32:50;;;;;;;5.97;5.38;;;20.60;99.90;;;;;;5034425;28;20206;-68
2022/07/26 04:35:17;;;;;;;7.28;5.22;;;20.60;99.90;;;;;;5035330;28;20646;-69
2022/07/26 04:37:44;;;;;;;5.97;4.55;;;20.60;99.90;;;;;;5034788;28;20211;-69
2022/07/26 04:40:15;;;;;;;5.20;4.68;;;20.60;99.90;;;;;;5035386;28;20210;-68
2022/07/26 04:42:42;;;;;;;11.70;5.28;;;20.70;99.90;;;;;;5034844;28;20577;-70
2022/07/26 04:45:11;;;;;;;7.97;5.03;;;20.70;99.90;;;;;;5034218;28;20653;-69
2022/07/26 04:47:40;;;;;;;6.20;5.13;;;20.70;99.90;;;;;;5034839;28;20218;-70
2022/07/26 04:50:09;;;;;;;6.40;5.10;;;20.70;99.90;;;;;;5034449;28;20219;-70
2022/07/26 04:52:36;;;;;;;6.65;5.22;;;20.70;99.90;;;;;;5033098;28;20218;-69
2022/07/26 04:55:03;;;;;;;5.72;4.95;;;20.70;99.90;;;;;;5034089;28;20209;-69
2022/07/26 04:57:30;;;;;;;7.30;4.82;;;20.80;99.90;;;;;;5034631;28;20203;-67
2022/07/26 04:59:57;;;;;;;7.20;5.53;;;20.80;99.90;;;;;;5033042;28;20198;-69
2022/07/26 05:02:23;;;;;;;6.97;5.15;;;20.90;99.90;;;;;;5032758;28;20225;-68
2022/07/26 05:04:50;;;;;;;6.43;4.80;;;20.90;99.90;;;;;;5035093;28;20206;-68
2022/07/26 05:07:19;;;;;;;8.02;4.93;;;21.00;99.90;;;;;;5035255;28;20232;-69
2022/07/26 05:09:45;;;;;;;7.22;5.28;;;21.10;99.90;;;;;;5035038;28;20211;-69
2022/07/26 05:12:13;;;;;;;5.13;4.72;;;21.20;99.90;;;;;;5034134;28;20202;-69
2022/07/26 05:14:40;;;;;;;8.43;4.32;;;21.30;99.90;;;;;;5033676;28;20206;-68
2022/07/26 05:17:07;;;;;;;6.50;4.82;;;21.40;99.90;;;;;;5033130;28;20209;-68
2022/07/26 05:19:34;;;;;;;5.75;5.05;;;21.50;99.90;;;;;;5029771;28;20206;-69
2022/07/26 05:22:00;;;;;;;7.35;5.35;;;21.60;99.90;;;;;;5035129;28;20221;-69
2022/07/26 05:24:28;;;;;;;6.93;4.38;;;21.70;99.90;;;;;;5035231;28;20221;-69
2022/07/26 05:26:55;;;;;;;7.03;4.72;;;21.70;99.90;;;;;;5033415;28;20654;-68
2022/07/26 05:29:22;;;;;;;8.02;5.07;;;21.80;99.90;;;;;;5032433;28;20206;-64
2022/07/26 05:31:49;;;;;;;6.47;4.22;;;21.90;99.90;;;;;;5034367;28;20574;-68
2022/07/26 05:34:16;;;;;;;4.43;4.03;;;21.90;99.90;;;;;;5031124;28;20545;-69
2022/07/26 05:36:43;;;;;;;7.40;4.30;;;22.00;99.90;;;;;;5029920;28;20206;-67
2022/07/26 05:39:09;;;;;;;4.93;4.30;;;22.00;99.90;;;;;;5031905;28;20570;-69
2022/07/26 05:41:37;;;;;;;6.78;4.18;;;22.00;99.90;;;;;;5032643;28;20211;-69
2022/07/26 05:44:04;;;;;;;5.65;4.30;;;22.00;99.90;;;;;;5032400;28;20210;-69
2022/07/26 05:46:31;;;;;;;6.30;4.28;;;22.10;99.90;;;;;;5028675;28;20241;-68
2022/07/26 05:48:58;;;;;;;10.60;4.15;;;22.20;99.90;;;;;;5029683;28;20206;-69
2022/07/26 05:51:24;;;;;;;5.70;4.25;;;22.30;99.90;;;;;;5029647;28;20198;-69
2022/07/26 05:53:51;;;;;;;6.80;3.88;;;22.30;99.90;;;;;;5031687;28;20238;-69
2022/07/26 05:56:19;;;;;;;4.82;4.28;;;22.40;99.90;;;;;;5031528;28;20581;-67
2022/07/26 05:58:47;;;;;;;5.75;4.03;;;22.40;99.90;;;;;;5034023;28;20213;-70
2022/07/26 06:01:14;;;;;;;6.43;4.35;;;22.50;99.90;;;;;;5032609;28;20674;-70
2022/07/26 06:03:41;;;;;;;4.80;3.47;;;22.50;99.90;;;;;;5032947;28;20683;-69
2022/07/26 06:06:08;;;;;;;6.00;4.18;;;22.50;99.90;;;;;;5031711;28;20210;-70
2022/07/26 06:08:35;;;;;;;5.68;4.15;;;22.60;99.90;;;;;;5031807;28;20686;-68
2022/07/26 06:11:02;;;;;;;5.72;4.30;;;22.70;99.90;;;;;;5033978;28;20214;-68
2022/07/26 06:13:29;;;;;;;6.78;4.20;;;22.80;99.90;;;;;;5032821;28;20203;-68
2022/07/26 06:15:57;;;;;;;6.13;4.28;;;22.80;99.90;;;;;;5034587;28;20230;-69
2022/07/26 06:18:24;;;;;;;8.82;4.60;;;22.90;99.90;;;;;;5032440;28;20214;-68
2022/07/26 06:20:51;;;;;;;5.90;3.92;;;22.90;99.90;;;;;;5033309;28;20206;-67
2022/07/26 06:23:18;;;;;;;5.47;4.53;;;22.90;99.90;;;;;;5031156;28;20214;-68
2022/07/26 06:25:45;;;;;;;6.30;4.07;;;23.10;99.90;;;;;;5033427;28;20227;-66
2022/07/26 06:28:12;;;;;;;5.90;3.92;;;23.20;99.90;;;;;;5031061;28;20219;-68
2022/07/26 06:30:39;;;;;;;5.07;3.80;;;23.30;99.90;;;;;;5033682;28;20218;-68
2022/07/26 06:33:08;;;;;;;5.63;3.95;;;23.40;99.90;;;;;;5033091;28;20682;-67
2022/07/26 06:35:37;;;;;;;4.90;4.15;;;23.50;99.90;;;;;;5032110;28;20214;-71
2022/07/26 06:38:04;;;;;;;4.15;3.47;;;23.60;99.90;;;;;;5032980;28;20202;-68
2022/07/26 06:40:31;;;;;;;4.28;3.83;;;23.70;99.90;;;;;;5041543;28;20215;-68
2022/07/26 06:42:58;;;;;;;5.57;4.03;;;23.80;99.90;;;;;;5036480;28;20246;-66
2022/07/26 06:45:26;;;;;;;5.20;3.60;;;24.00;99.90;;;;;;5033950;28;20207;-67
2022/07/26 06:47:52;;;;;;;3.70;3.40;;;24.10;99.90;;;;;;5032719;28;21032;-68
2022/07/26 06:50:21;;;;;;;3.95;3.40;;;24.10;99.90;;;;;;5030601;28;20207;-67
2022/07/26 06:52:48;;;;;;;6.03;3.67;;;24.30;99.70;;;;;;5029713;28;20249;-69
2022/07/26 06:55:15;;;;;;;3.75;3.45;;;24.50;99.30;;;;;;5029654;28;20202;-67
2022/07/26 06:57:42;;;;;;;7.07;3.45;;;24.60;99.00;;;;;;5030673;28;20542;-68
2022/07/26 07:00:09;;;;;;;6.43;3.60;;;24.80;98.90;;;;;;5030747;28;20198;-69
2022/07/26 07:02:37;;;;;;;7.43;3.60;;;25.00;98.60;;;;;;5017662;28;20207;-70
2022/07/26 07:05:05;;;;;;;4.40;3.17;;;25.10;98.10;;;;;;5027086;28;20677;-68
2022/07/26 07:07:34;;;;;;;3.83;3.53;;;25.10;97.60;;;;;;5026882;28;20687;-70
2022/07/26 07:10:01;;;;;;;5.05;3.50;;;25.20;97.60;;;;;;5031052;28;20210;-68
2022/07/26 07:12:28;;;;;;;3.90;3.50;;;25.30;97.30;;;;;;5032653;28;20293;-68
2022/07/26 07:14:55;;;;;;;6.32;3.47;;;25.30;97.10;;;;;;5032392;28;20221;-68
2022/07/26 07:17:22;;;;;;;3.70;3.33;;;25.50;97.10;;;;;;5032522;28;20199;-67
2022/07/26 07:19:48;;;;;;;3.67;3.28;;;25.60;97.30;;;;;;5035294;28;20211;-68
2022/07/26 07:22:15;;;;;;;4.60;3.58;;;25.70;96.70;;;;;;5037383;28;20642;-69
2022/07/26 07:24:44;;;;;;;4.47;3.55;;;25.70;96.50;;;;;;5037771;28;20655;-69
2022/07/26 07:27:11;;;;;;;3.30;3.00;;;25.80;96.40;;;;;;5036713;28;20642;-69
2022/07/26 07:29:39;;;;;;;7.75;4.18;;;26.00;96.30;;;;;;5034993;28;20215;-67
2022/07/26 07:32:06;;;;;;;3.40;2.95;;;26.20;95.90;;;;;;5035985;28;20228;-69
2022/07/26 07:34:33;;;;;;;4.65;3.08;;;26.40;95.70;;;;;;5033940;28;20210;-68
2022/07/26 07:37:00;;;;;;;5.60;3.10;;;26.50;94.90;;;;;;5037714;28;20215;-70
2022/07/26 07:39:27;;;;;;;6.43;3.03;;;26.70;94.30;;;;;;5033490;28;20202;-68
2022/07/26 07:41:55;;;;;;;5.38;3.30;;;26.80;93.80;;;;;;5035978;28;20214;-68
2022/07/26 07:44:22;;;;;;;3.45;2.80;;;26.90;93.30;;;;;;5032606;28;20210;-68
2022/07/26 07:46:49;;;;;;;3.35;3.05;;;27.00;92.70;;;;;;5036907;28;20210;-68
2022/07/26 07:49:15;;;;;;;4.05;2.88;;;27.10;92.30;;;;;;5030514;28;20675;-69
2022/07/26 07:51:42;;;;;;;3.60;3.30;;;27.30;92.00;;;;;;5031363;28;20647;-68
2022/07/26 07:54:09;;;;;;;6.55;3.28;;;27.40;91.80;;;;;;5033916;28;20249;-69
2022/07/26 07:56:36;;;;;;;4.43;3.00;;;27.40;91.60;;;;;;5032806;28;20219;-69
2022/07/26 07:59:04;;;;;;;6.47;3.40;;;27.40;91.50;;;;;;5035977;28;20202;-69
2022/07/26 08:01:31;;;;;;;3.65;2.90;;;27.50;91.20;;;;;;5035001;28;20281;-67
2022/07/26 08:03:58;;;;;;;4.25;3.05;;;27.50;91.00;;;;;;5033620;28;20198;-69
2022/07/26 08:06:24;;;;;;;9.02;3.45;;;27.60;91.00;;;;;;5033779;28;20578;-68
2022/07/26 08:08:51;;;;;;;3.30;3.00;;;27.60;90.40;;;;;;5033793;28;20680;-69
2022/07/26 08:11:18;;;;;;;5.50;3.20;;;27.50;90.20;;;;;;5032698;28;20582;-69
2022/07/26 08:13:45;;;;;;;5.53;3.50;;;27.50;90.30;;;;;;5035343;28;20214;-69
2022/07/26 08:16:13;;;;;;;5.32;3.55;;;27.60;90.30;;;;;;5033031;28;20206;-69
2022/07/26 08:18:40;;;;;;;5.68;3.60;;;27.70;90.20;;;;;;5036191;28;20202;-69
2022/07/26 08:21:07;;;;;;;4.57;2.85;;;27.70;90.20;;;;;;5034481;28;20228;-69
2022/07/26 08:23:34;;;;;;;4.80;3.15;;;27.80;90.00;;;;;;5034231;28;20290;-69
2022/07/26 08:26:01;;;;;;;3.63;3.22;;;27.80;89.90;;;;;;5031457;28;20343;-68
2022/07/26 08:28:28;;;;;;;6.88;3.40;;;27.90;89.50;;;;;;5034815;28;20273;-70
2022/07/26 08:30:55;;;;;;;5.82;4.65;;;28.00;89.00;;;;;;5032383;28;20219;-69
2022/07/26 08:33:23;;;;;;;6.85;3.63;;;28.10;88.60;;;;;;5035323;28;20211;-69
2022/07/26 08:35:50;;;;;;;6.03;3.40;;;28.20;88.20;;;;;;5034362;28;20209;-70
2022/07/26 08:38:17;;;;;;;4.90;3.22;;;28.40;87.90;;;;;;5032640;28;20211;-69
2022/07/26 08:40:43;;;;;;;6.95;3.50;;;28.60;87.90;;;;;;5034535;28;20725;-69
2022/07/26 08:43:10;;;;;;;8.88;3.05;;;28.70;87.10;;;;;;5034884;28;20206;-69
2022/07/26 08:45:37;;;;;;;4.75;3.03;;;29.00;86.10;;;;;;5034516;28;20664;-69
2022/07/26 08:48:04;;;;;;;10.48;3.40;;;29.10;84.80;;;;;;5035228;28;20230;-69
2022/07/26 08:50:33;;;;;;;3.67;3.10;;;29.20;84.60;;;;;;5032095;28;20210;-69
2022/07/26 08:53:05;;;;;;;5.80;3.17;;;29.40;84.30;;;;;;5030402;28;20249;-69
2022/07/26 08:55:32;;;;;;;4.30;3.00;;;29.60;82.90;;;;;;5025465;28;20198;-70
2022/07/26 08:58:01;;;;;;;4.05;3.10;;;29.70;82.30;;;;;;5032915;28;20213;-71
2022/07/26 09:00:30;;;;;;;6.38;5.53;;;29.90;81.50;;;;;;5034580;28;20206;-70
2022/07/26 09:02:58;;;;;;;5.10;3.30;;;30.00;80.50;;;;;;5034860;28;20569;-68
2022/07/26 09:05:28;;;;;;;4.53;3.67;;;30.00;80.20;;;;;;5034587;28;20214;-69
2022/07/26 09:07:56;;;;;;;3.78;2.90;;;30.00;80.40;;;;;;5035391;28;20249;-69
2022/07/26 09:10:23;;;;;;;4.22;3.42;;;29.90;80.70;;;;;;5032772;28;20207;-69
2022/07/26 09:12:55;;;;;;;5.80;3.45;;;30.00;80.40;;;;;;5032899;28;20223;-69
2022/07/26 09:15:23;;;;;;;4.82;3.15;;;30.10;79.60;;;;;;5018933;28;20203;-69
2022/07/26 09:17:51;;;;;;;4.80;3.30;;;30.20;79.40;;;;;;5033687;28;20630;-68
2022/07/26 09:20:20;;;;;;;7.55;3.65;;;30.30;79.20;;;;;;5034363;28;20206;-69
2022/07/26 09:23:02;;;;;;;5.72;3.90;;;30.40;79.30;;;;;;5033563;28;20294;-70
2022/07/26 09:25:30;;;;;;;4.05;3.63;;;30.50;78.80;;;;;;5032847;28;20230;-69
2022/07/26 09:27:59;;;;;;;8.20;3.47;;;30.60;78.70;;;;;;5033130;28;20249;-69
2022/07/26 09:30:26;;;;;;;6.53;3.58;;;30.60;78.50;;;;;;5030442;28;20211;-69
2022/07/26 09:33:03;;;;;;;7.05;3.80;;;30.70;79.40;;;;;;5034157;28;20218;-69
2022/07/26 09:35:31;;;;;;;5.03;4.05;;;30.90;78.40;;;;;;5034459;28;20230;-69
2022/07/26 09:38:00;;;;;;;5.85;3.67;;;31.00;77.00;;;;;;5033446;28;20198;-69
2022/07/26 09:40:34;;;;;;;7.97;3.67;;;31.00;76.20;;;;;;5032862;28;20207;-68
2022/07/26 09:43:04;;;;;;;7.20;3.90;;;31.10;76.30;;;;;;5032611;28;20203;-69
2022/07/26 09:45:33;;;;;;;4.18;3.50;;;31.10;75.80;;;;;;5033590;28;20297;-70
2022/07/26 09:48:00;;;;;;;7.32;3.63;;;31.20;76.00;;;;;;5033318;28;20226;-69
2022/07/26 09:50:29;;;;;;;5.65;3.53;;;31.30;75.00;;;;;;5037566;28;20285;-70
2022/07/26 09:53:06;;;;;;;5.15;3.58;;;31.30;74.60;;;;;;5030312;28;20276;-69
2022/07/26 09:55:34;;;;;;;4.93;3.50;;;31.30;75.10;;;;;;5034285;28;20285;-70
2022/07/26 09:58:05;;;;;;;5.68;3.75;;;31.40;75.50;;;;;;5034208;28;20215;-69
2022/07/26 10:00:33;;;;;;;5.00;4.45;;;31.40;74.70;;;;;;5031178;28;20204;-69
2022/07/26 10:03:00;;;;;;;4.63;4.00;;;31.40;74.70;;;;;;5031749;28;20214;-69
2022/07/26 10:05:27;;;;;;;4.97;3.85;;;31.40;75.20;;;;;;5032147;28;20207;-68
2022/07/26 10:07:54;;;;;;;4.90;3.90;;;31.60;74.80;;;;;;5033245;28;20231;-70
2022/07/26 10:10:27;;;;;;;7.57;3.35;;;31.70;74.60;;;;;;5033947;28;20211;-70
2022/07/26 10:12:54;;;;;;;5.45;4.03;;;31.70;74.40;;;;;;5032287;28;20221;-71
2022/07/26 10:15:35;;;;;;;4.57;3.47;;;31.70;74.40;;;;;;5032179;28;20221;-70
2022/07/26 10:18:03;;;;;;;4.72;3.90;;;31.70;74.90;;;;;;5033502;28;20228;-70
2022/07/26 10:20:50;;;;;;;7.03;3.50;;;31.80;74.30;;;;;;5030943;28;20245;-69
2022/07/26 10:23:48;;;;;;;6.18;3.70;;;31.80;74.50;;;;;;5032879;28;20221;-69
2022/07/26 10:26:41;;;;;;;6.38;4.32;;;31.80;74.20;;;;;;5034753;28;20218;-70
2022/07/26 10:29:27;;;;;;;5.00;4.10;;;31.70;74.60;;;;;;5031613;28;20219;-69
2022/07/26 10:32:13;;;;;;;5.55;3.83;;;31.60;74.80;;;;;;5029027;28;20836;-69
2022/07/26 10:34:40;;;;;;;4.82;3.92;;;31.60;74.90;;;;;;5032584;28;20210;-68
2022/07/26 10:37:09;;;;;;;4.05;3.45;;;31.60;74.80;;;;;;5033959;28;20217;-68
2022/07/26 10:39:37;;;;;;;4.63;4.22;;;31.40;75.00;;;;;;5032149;28;20208;-69
2022/07/26 10:42:06;;;;;;;5.10;4.65;;;31.20;75.30;;;;;;5033956;28;20215;-69
2022/07/26 10:44:34;;;;;;;3.72;3.35;;;31.00;75.80;;;;;;5032471;28;20293;-68
2022/07/26 10:47:17;;;;;;;4.10;3.70;;;30.90;76.50;;;;;;5031635;28;20225;-69
2022/07/26 10:49:57;;;;;;;3.97;3.67;;;30.80;77.00;;;;;;5036907;28;20260;-69
2022/07/26 10:52:26;;;;;;;3.80;3.50;;;30.90;77.40;;;;;;5036345;28;20210;-69
2022/07/26 10:55:18;;;;;;;5.30;3.85;;;31.00;76.60;;;;;;5035699;28;20261;-70
2022/07/26 10:57:49;;;;;;;6.18;3.75;;;31.10;76.00;;;;;;5036919;28;20226;-69
2022/07/26 11:00:21;;;;;;;5.20;3.70;;;31.00;76.20;;;;;;5035206;28;20648;-69
2022/07/26 11:02:52;;;;;;;3.83;3.53;;;30.90;75.10;;;;;;5032161;28;20207;-69
2022/07/26 11:05:20;;;;;;;4.90;3.78;;;31.00;74.80;;;;;;5029485;28;20206;-67
2022/07/26 11:07:55;;;;;;;4.20;3.42;;;30.90;75.00;;;;;;5028265;28;20211;-68
2022/07/26 11:10:28;;;;;;;4.20;3.80;;;30.80;74.80;;;;;;5032992;28;20202;-67
2022/07/26 11:13:00;;;;;;;5.90;3.75;;;30.80;75.10;;;;;;5035940;28;20194;-64
2022/07/26 11:15:27;;;;;;;7.85;4.20;;;30.70;74.50;;;;;;5035459;28;20294;-64
2022/07/26 11:18:09;;;;;;;4.13;3.83;;;30.70;74.70;;;;;;5036483;28;20608;-64
2022/07/26 11:20:36;;;;;;;5.00;3.72;;;30.50;74.20;;;;;;5034831;28;20202;-65
2022/07/26 11:23:03;;;;;;;6.03;3.55;;;30.30;74.40;;;;;;5036182;28;20202;-66
2022/07/26 11:25:30;;;;;;;4.82;3.47;;;30.20;74.70;;;;;;5033114;28;20682;-70
2022/07/26 11:28:03;;;;;;;5.55;3.45;;;30.00;75.20;;;;;;5036621;28;20207;-66
2022/07/26 11:30:30;;;;;;;7.93;3.53;;;29.80;75.50;;;;;;5034014;28;20203;-66
2022/07/26 11:32:58;;;;;;;8.45;3.92;;;29.70;75.70;;;;;;5035030;28;20411;-66
2022/07/26 11:35:26;;;;;;;5.93;3.95;;;29.40;76.40;;;;;;5035590;28;20252;-66
2022/07/26 11:37:54;;;;;;;4.38;3.78;;;29.00;77.20;;;;;;5036568;28;20234;-69
2022/07/26 11:40:42;;;;;;;4.35;3.95;;;28.70;78.30;;;;;;5035871;28;20210;-67
2022/07/26 11:43:10;;;;;;;5.35;3.70;;;28.30;78.80;;;;;;5035375;28;20202;-71
2022/07/26 11:45:37;;;;;;;4.55;3.92;;;27.90;79.50;;;;;;5034470;28;20604;-71
2022/07/26 11:48:05;;;;;;;5.05;4.03;;;27.60;80.30;;;;;;5030616;28;20209;-70
2022/07/26 11:50:32;;;;;;;7.47;4.80;;;27.40;81.20;;;;;;5033213;28;20211;-68
2022/07/26 11:52:59;;;;;;;5.88;4.40;;;27.10;81.50;;;;;;5029875;28;20238;-68
2022/07/26 11:55:27;;;;;;;6.20;4.28;;;26.80;82.30;;;;;;5035887;28;20203;-68
2022/07/26 11:57:54;;;;;;;7.20;4.35;;;26.60;83.20;;;;;;5033272;28;20575;-70
2022/07/26 12:00:23;;;;;;;4.47;3.92;;;26.40;83.90;;;;;;5033774;28;20203;-70
2022/07/26 12:02:50;;;;;;;4.97;4.15;;;26.20;84.80;;;;;;5032191;28;20213;-69
2022/07/26 12:05:19;;;;;;;7.28;3.97;;;26.00;85.70;;;;;;5034159;28;20203;-71
2022/07/26 12:07:57;;;;;;;4.82;4.32;;;25.80;86.30;;;;;;5028658;28;20217;-69
2022/07/26 12:10:24;;;;;;;5.18;4.00;;;25.70;87.30;;;;;;5032564;28;20218;-71
2022/07/26 12:13:07;;;;;;;6.13;4.18;;;25.50;87.80;;;;;;5034399;28;20676;-71
2022/07/26 12:15:46;;;;;;;5.20;4.45;;;25.30;89.20;;;;;;5034531;28;20464;-70
2022/07/26 12:18:23;;;;;;;5.90;4.18;;;25.20;90.30;;;;;;5034970;28;20293;-71
2022/07/26 12:21:00;;;;;;;7.43;4.57;;;25.00;90.80;;;;;;5031914;28;20253;-69
2022/07/26 12:23:39;;;;;;;5.47;4.57;;;24.90;91.50;;;;;;5033896;28;20209;-68
2022/07/26 12:26:19;;;;;;;7.72;4.95;;;24.70;92.10;;;;;;5033126;28;20240;-69
2022/07/26 12:28:46;;;;;;;9.18;6.40;;;24.50;93.20;;;;;;5033516;28;20219;-68
2022/07/26 12:31:25;;;;;;;9.85;5.53;;;24.40;94.00;;;;;;5034675;28;20205;-69
2022/07/26 12:33:52;;;;;;;6.65;5.30;;;24.30;95.10;;;;;;5034792;28;20673;-69
2022/07/26 12:36:20;;;;;;;8.07;5.47;;;24.20;95.90;;;;;;5033434;28;20211;-69
2022/07/26 12:38:47;;;;;;;5.97;5.00;;;24.10;97.00;;;;;;5034945;28;20207;-68
2022/07/26 12:41:31;;;;;;;8.13;5.82;;;24.00;97.70;;;;;;5033205;28;20218;-68
2022/07/26 12:43:58;;;;;;;6.43;5.22;;;23.90;98.20;;;;;;5034505;28;20209;-67
2022/07/26 12:46:26;;;;;;;5.88;5.30;;;23.80;98.70;;;;;;5034070;28;20202;-68
2022/07/26 12:48:53;;;;;;;7.07;5.05;;;23.70;99.50;;;;;;5033037;28;20227;-67
2022/07/26 12:51:20;;;;;;;6.20;5.40;;;23.50;99.90;;;;;;5029708;28;20214;-67
2022/07/26 12:53:46;;;;;;;7.40;5.72;;;23.40;99.90;;;;;;5030912;28;20443;-68
2022/07/26 12:56:13;;;;;;;8.48;5.80;;;23.20;99.90;;;;;;5035040;28;20512;-68
2022/07/26 12:58:40;;;;;;;9.32;6.88;;;23.10;99.90;;;;;;5035044;28;20206;-67